sensor_id;sensor_type;location;lat;lon;timestamp;temperature;humidity
78696;SHT31;68030;51.980;5.646;2023-04-03T00:02:14;7.0;53.7
78696;SHT31;68030;51.980;5.646;2023-04-03T00:04:44;7.0;53.5
78696;SHT31;68030;51.980;5.646;2023-04-03T00:07:14;7.0;53.5
78696;SHT31;68030;51.980;5.646;2023-04-03T00:09:44;7.0;53.5
78696;SHT31;68030;51.980;5.646;2023-04-03T00:12:14;7.0;53.4
78696;SHT31;68030;51.980;5.646;2023-04-03T00:14:43;6.9;53.5
78696;SHT31;68030;51.980;5.646;2023-04-03T00:17:13;6.9;53.6
78696;SHT31;68030;51.980;5.646;2023-04-03T00:19:42;6.9;53.6
78696;SHT31;68030;51.980;5.646;2023-04-03T00:22:12;6.9;53.7
78696;SHT31;68030;51.980;5.646;2023-04-03T00:24:43;6.9;53.6
78696;SHT31;68030;51.980;5.646;2023-04-03T00:27:12;6.9;53.3
78696;SHT31;68030;51.980;5.646;2023-04-03T00:29:43;6.8;53.3
78696;SHT31;68030;51.980;5.646;2023-04-03T00:32:13;6.8;53.4
78696;SHT31;68030;51.980;5.646;2023-04-03T00:34:42;6.8;53.5
78696;SHT31;68030;51.980;5.646;2023-04-03T00:37:12;6.8;53.6
78696;SHT31;68030;51.980;5.646;2023-04-03T00:39:42;6.8;53.2
78696;SHT31;68030;51.980;5.646;2023-04-03T00:42:11;6.8;53.3
78696;SHT31;68030;51.980;5.646;2023-04-03T00:49:43;6.7;53.5
78696;SHT31;68030;51.980;5.646;2023-04-03T00:52:17;6.7;53.6
78696;SHT31;68030;51.980;5.646;2023-04-03T00:54:53;6.7;53.5
78696;SHT31;68030;51.980;5.646;2023-04-03T00:57:24;6.6;53.6
78696;SHT31;68030;51.980;5.646;2023-04-03T00:59:59;6.6;53.7
78696;SHT31;68030;51.980;5.646;2023-04-03T01:02:30;6.6;54.0
78696;SHT31;68030;51.980;5.646;2023-04-03T01:05:00;6.6;54.4
78696;SHT31;68030;51.980;5.646;2023-04-03T01:07:31;6.5;54.2
78696;SHT31;68030;51.980;5.646;2023-04-03T01:10:08;6.5;54.3
78696;SHT31;68030;51.980;5.646;2023-04-03T01:12:42;6.5;54.4
78696;SHT31;68030;51.980;5.646;2023-04-03T01:15:15;6.5;54.7
78696;SHT31;68030;51.980;5.646;2023-04-03T01:17:49;6.4;54.7
78696;SHT31;68030;51.980;5.646;2023-04-03T01:21:58;6.4;54.6
78696;SHT31;68030;51.980;5.646;2023-04-03T01:24:34;6.4;54.7
78696;SHT31;68030;51.980;5.646;2023-04-03T01:27:09;6.4;54.9
78696;SHT31;68030;51.980;5.646;2023-04-03T01:29:40;6.4;54.8
78696;SHT31;68030;51.980;5.646;2023-04-03T01:32:13;6.3;55.1
78696;SHT31;68030;51.980;5.646;2023-04-03T01:34:44;6.3;55.4
78696;SHT31;68030;51.980;5.646;2023-04-03T01:37:14;6.3;55.6
78696;SHT31;68030;51.980;5.646;2023-04-03T01:39:43;6.3;55.5
78696;SHT31;68030;51.980;5.646;2023-04-03T01:42:13;6.3;55.5
78696;SHT31;68030;51.980;5.646;2023-04-03T01:44:45;6.3;55.4
78696;SHT31;68030;51.980;5.646;2023-04-03T01:47:14;6.3;55.7
78696;SHT31;68030;51.980;5.646;2023-04-03T01:49:46;6.3;55.8
78696;SHT31;68030;51.980;5.646;2023-04-03T01:52:16;6.3;55.8
78696;SHT31;68030;51.980;5.646;2023-04-03T01:54:45;6.3;56.0
78696;SHT31;68030;51.980;5.646;2023-04-03T01:57:15;6.3;56.0
78696;SHT31;68030;51.980;5.646;2023-04-03T01:59:44;6.3;56.0
78696;SHT31;68030;51.980;5.646;2023-04-03T02:02:14;6.3;56.1
78696;SHT31;68030;51.980;5.646;2023-04-03T02:04:46;6.2;56.0
78696;SHT31;68030;51.980;5.646;2023-04-03T02:07:17;6.2;56.1
78696;SHT31;68030;51.980;5.646;2023-04-03T02:09:47;6.2;56.0
78696;SHT31;68030;51.980;5.646;2023-04-03T02:12:17;6.2;56.1
78696;SHT31;68030;51.980;5.646;2023-04-03T02:14:48;6.2;56.5
78696;SHT31;68030;51.980;5.646;2023-04-03T02:17:18;6.2;56.5
78696;SHT31;68030;51.980;5.646;2023-04-03T02:19:47;6.2;56.4
78696;SHT31;68030;51.980;5.646;2023-04-03T02:22:17;6.1;56.5
78696;SHT31;68030;51.980;5.646;2023-04-03T02:24:49;6.1;56.8
78696;SHT31;68030;51.980;5.646;2023-04-03T02:27:21;6.1;57.1
78696;SHT31;68030;51.980;5.646;2023-04-03T02:29:50;6.1;57.2
78696;SHT31;68030;51.980;5.646;2023-04-03T02:32:20;6.0;57.6
78696;SHT31;68030;51.980;5.646;2023-04-03T02:34:50;6.0;57.8
78696;SHT31;68030;51.980;5.646;2023-04-03T02:37:22;6.0;57.8
78696;SHT31;68030;51.980;5.646;2023-04-03T02:39:52;6.0;57.8
78696;SHT31;68030;51.980;5.646;2023-04-03T02:42:21;6.0;58.0
78696;SHT31;68030;51.980;5.646;2023-04-03T02:44:51;6.0;58.1
78696;SHT31;68030;51.980;5.646;2023-04-03T02:47:21;6.0;58.1
78696;SHT31;68030;51.980;5.646;2023-04-03T02:49:50;6.0;58.3
78696;SHT31;68030;51.980;5.646;2023-04-03T02:52:21;6.0;58.5
78696;SHT31;68030;51.980;5.646;2023-04-03T02:54:50;6.0;58.6
78696;SHT31;68030;51.980;5.646;2023-04-03T02:57:20;6.0;58.3
78696;SHT31;68030;51.980;5.646;2023-04-03T02:59:50;6.0;58.3
78696;SHT31;68030;51.980;5.646;2023-04-03T03:02:19;5.9;58.3
78696;SHT31;68030;51.980;5.646;2023-04-03T03:04:49;5.9;58.3
78696;SHT31;68030;51.980;5.646;2023-04-03T03:07:18;5.9;58.3
78696;SHT31;68030;51.980;5.646;2023-04-03T03:09:48;5.9;58.3
78696;SHT31;68030;51.980;5.646;2023-04-03T03:12:18;5.9;58.4
78696;SHT31;68030;51.980;5.646;2023-04-03T03:14:49;5.9;58.5
78696;SHT31;68030;51.980;5.646;2023-04-03T03:17:18;5.9;58.5
78696;SHT31;68030;51.980;5.646;2023-04-03T03:19:50;5.8;58.7
78696;SHT31;68030;51.980;5.646;2023-04-03T03:22:20;5.8;58.7
78696;SHT31;68030;51.980;5.646;2023-04-03T03:24:49;5.8;58.8
78696;SHT31;68030;51.980;5.646;2023-04-03T03:27:19;5.8;58.9
78696;SHT31;68030;51.980;5.646;2023-04-03T03:29:49;5.8;59.0
78696;SHT31;68030;51.980;5.646;2023-04-03T03:32:19;5.8;59.1
78696;SHT31;68030;51.980;5.646;2023-04-03T03:34:49;5.7;59.2
78696;SHT31;68030;51.980;5.646;2023-04-03T03:37:20;5.7;59.2
78696;SHT31;68030;51.980;5.646;2023-04-03T03:39:50;5.7;59.4
78696;SHT31;68030;51.980;5.646;2023-04-03T03:42:20;5.7;59.3
78696;SHT31;68030;51.980;5.646;2023-04-03T03:44:49;5.7;59.5
78696;SHT31;68030;51.980;5.646;2023-04-03T03:47:19;5.7;59.5
78696;SHT31;68030;51.980;5.646;2023-04-03T03:49:50;5.7;59.5
78696;SHT31;68030;51.980;5.646;2023-04-03T03:52:20;5.6;59.6
78696;SHT31;68030;51.980;5.646;2023-04-03T03:54:50;5.6;59.8
78696;SHT31;68030;51.980;5.646;2023-04-03T03:57:21;5.6;59.9
78696;SHT31;68030;51.980;5.646;2023-04-03T03:59:51;5.6;59.9
78696;SHT31;68030;51.980;5.646;2023-04-03T04:02:20;5.6;59.8
78696;SHT31;68030;51.980;5.646;2023-04-03T04:04:50;5.6;60.0
78696;SHT31;68030;51.980;5.646;2023-04-03T04:07:22;5.6;60.0
78696;SHT31;68030;51.980;5.646;2023-04-03T04:09:52;5.6;59.9
78696;SHT31;68030;51.980;5.646;2023-04-03T04:12:21;5.6;60.1
78696;SHT31;68030;51.980;5.646;2023-04-03T04:14:51;5.6;59.9
78696;SHT31;68030;51.980;5.646;2023-04-03T04:17:21;5.5;59.9
78696;SHT31;68030;51.980;5.646;2023-04-03T04:19:51;5.5;60.0
78696;SHT31;68030;51.980;5.646;2023-04-03T04:22:21;5.5;60.1
78696;SHT31;68030;51.980;5.646;2023-04-03T04:24:51;5.4;60.2
78696;SHT31;68030;51.980;5.646;2023-04-03T04:27:20;5.4;60.3
78696;SHT31;68030;51.980;5.646;2023-04-03T04:29:54;5.4;60.6
78696;SHT31;68030;51.980;5.646;2023-04-03T04:32:24;5.4;60.5
78696;SHT31;68030;51.980;5.646;2023-04-03T04:34:54;5.4;60.9
78696;SHT31;68030;51.980;5.646;2023-04-03T04:37:26;5.4;60.6
78696;SHT31;68030;51.980;5.646;2023-04-03T04:39:56;5.4;60.7
78696;SHT31;68030;51.980;5.646;2023-04-03T04:42:25;5.4;60.7
78696;SHT31;68030;51.980;5.646;2023-04-03T04:44:55;5.4;60.7
78696;SHT31;68030;51.980;5.646;2023-04-03T04:47:25;5.4;60.5
78696;SHT31;68030;51.980;5.646;2023-04-03T04:49:55;5.4;60.4
78696;SHT31;68030;51.980;5.646;2023-04-03T04:52:25;5.5;60.4
78696;SHT31;68030;51.980;5.646;2023-04-03T04:54:54;5.5;60.2
78696;SHT31;68030;51.980;5.646;2023-04-03T04:57:24;5.5;60.1
78696;SHT31;68030;51.980;5.646;2023-04-03T04:59:54;5.5;59.9
78696;SHT31;68030;51.980;5.646;2023-04-03T05:02:24;5.5;60.3
78696;SHT31;68030;51.980;5.646;2023-04-03T05:04:53;5.5;60.0
78696;SHT31;68030;51.980;5.646;2023-04-03T05:07:23;5.5;60.2
78696;SHT31;68030;51.980;5.646;2023-04-03T05:09:53;5.4;60.0
78696;SHT31;68030;51.980;5.646;2023-04-03T05:12:23;5.4;60.3
78696;SHT31;68030;51.980;5.646;2023-04-03T05:14:53;5.4;60.5
78696;SHT31;68030;51.980;5.646;2023-04-03T05:17:24;5.4;60.1
78696;SHT31;68030;51.980;5.646;2023-04-03T05:19:54;5.4;60.0
78696;SHT31;68030;51.980;5.646;2023-04-03T05:22:24;5.4;60.2
78696;SHT31;68030;51.980;5.646;2023-04-03T05:24:54;5.4;60.2
78696;SHT31;68030;51.980;5.646;2023-04-03T05:27:23;5.4;59.9
78696;SHT31;68030;51.980;5.646;2023-04-03T05:29:55;5.4;60.0
78696;SHT31;68030;51.980;5.646;2023-04-03T05:32:26;5.4;59.9
78696;SHT31;68030;51.980;5.646;2023-04-03T05:34:56;5.4;60.1
78696;SHT31;68030;51.980;5.646;2023-04-03T05:37:26;5.4;59.9
78696;SHT31;68030;51.980;5.646;2023-04-03T05:39:55;5.4;59.6
78696;SHT31;68030;51.980;5.646;2023-04-03T05:42:26;5.4;59.5
78696;SHT31;68030;51.980;5.646;2023-04-03T05:44:55;5.5;59.5
78696;SHT31;68030;51.980;5.646;2023-04-03T05:47:25;5.5;59.4
78696;SHT31;68030;51.980;5.646;2023-04-03T05:49:56;5.5;59.3
78696;SHT31;68030;51.980;5.646;2023-04-03T05:52:27;5.5;59.4
78696;SHT31;68030;51.980;5.646;2023-04-03T05:54:58;5.5;59.4
78696;SHT31;68030;51.980;5.646;2023-04-03T05:57:27;5.5;59.0
78696;SHT31;68030;51.980;5.646;2023-04-03T05:59:57;5.5;59.2
78696;SHT31;68030;51.980;5.646;2023-04-03T06:02:27;5.6;59.1
78696;SHT31;68030;51.980;5.646;2023-04-03T06:04:58;5.6;59.0
78696;SHT31;68030;51.980;5.646;2023-04-03T06:07:28;5.6;59.1
78696;SHT31;68030;51.980;5.646;2023-04-03T06:09:58;5.6;58.8
78696;SHT31;68030;51.980;5.646;2023-04-03T06:12:28;5.7;58.6
78696;SHT31;68030;51.980;5.646;2023-04-03T06:14:59;5.7;58.6
78696;SHT31;68030;51.980;5.646;2023-04-03T06:17:28;5.7;58.5
78696;SHT31;68030;51.980;5.646;2023-04-03T06:19:58;5.8;57.9
78696;SHT31;68030;51.980;5.646;2023-04-03T06:22:28;5.8;57.9
78696;SHT31;68030;51.980;5.646;2023-04-03T06:24:59;5.8;58.1
78696;SHT31;68030;51.980;5.646;2023-04-03T06:27:31;5.9;57.5
78696;SHT31;68030;51.980;5.646;2023-04-03T06:30:01;5.9;57.2
78696;SHT31;68030;51.980;5.646;2023-04-03T06:32:32;5.9;57.4
78696;SHT31;68030;51.980;5.646;2023-04-03T06:35:03;6.0;56.9
78696;SHT31;68030;51.980;5.646;2023-04-03T06:37:35;6.0;56.7
78696;SHT31;68030;51.980;5.646;2023-04-03T06:40:06;6.0;57.0
78696;SHT31;68030;51.980;5.646;2023-04-03T06:42:38;6.1;56.7
78696;SHT31;68030;51.980;5.646;2023-04-03T06:45:08;6.2;56.5
78696;SHT31;68030;51.980;5.646;2023-04-03T06:47:39;6.2;55.9
78696;SHT31;68030;51.980;5.646;2023-04-03T06:50:10;6.3;55.7
78696;SHT31;68030;51.980;5.646;2023-04-03T06:52:42;6.3;55.6
78696;SHT31;68030;51.980;5.646;2023-04-03T06:55:12;6.4;55.5
78696;SHT31;68030;51.980;5.646;2023-04-03T06:57:42;6.4;55.2
78696;SHT31;68030;51.980;5.646;2023-04-03T07:00:13;6.5;54.8
78696;SHT31;68030;51.980;5.646;2023-04-03T07:02:43;6.5;54.3
78696;SHT31;68030;51.980;5.646;2023-04-03T07:05:16;6.6;55.0
78696;SHT31;68030;51.980;5.646;2023-04-03T07:07:46;6.6;54.9
78696;SHT31;68030;51.980;5.646;2023-04-03T07:10:18;6.7;54.2
78696;SHT31;68030;51.980;5.646;2023-04-03T07:12:49;6.7;53.7
78696;SHT31;68030;51.980;5.646;2023-04-03T07:15:20;6.8;54.0
78696;SHT31;68030;51.980;5.646;2023-04-03T07:17:50;6.8;53.5
78696;SHT31;68030;51.980;5.646;2023-04-03T07:20:20;6.9;52.7
78696;SHT31;68030;51.980;5.646;2023-04-03T07:22:50;7.0;52.6
78696;SHT31;68030;51.980;5.646;2023-04-03T07:25:19;7.0;52.7
78696;SHT31;68030;51.980;5.646;2023-04-03T07:27:49;7.1;52.0
78696;SHT31;68030;51.980;5.646;2023-04-03T07:30:19;7.1;51.7
78696;SHT31;68030;51.980;5.646;2023-04-03T07:32:50;7.1;51.6
78696;SHT31;68030;51.980;5.646;2023-04-03T07:35:19;7.2;51.1
78696;SHT31;68030;51.980;5.646;2023-04-03T07:37:50;7.3;50.8
78696;SHT31;68030;51.980;5.646;2023-04-03T07:40:20;7.3;50.5
78696;SHT31;68030;51.980;5.646;2023-04-03T07:42:50;7.4;50.7
78696;SHT31;68030;51.980;5.646;2023-04-03T07:45:19;7.5;49.9
78696;SHT31;68030;51.980;5.646;2023-04-03T07:47:50;7.5;50.0
78696;SHT31;68030;51.980;5.646;2023-04-03T07:50:22;7.6;49.3
78696;SHT31;68030;51.980;5.646;2023-04-03T07:52:53;7.7;48.3
78696;SHT31;68030;51.980;5.646;2023-04-03T07:55:25;7.7;48.4
78696;SHT31;68030;51.980;5.646;2023-04-03T07:57:55;7.8;48.7
78696;SHT31;68030;51.980;5.646;2023-04-03T08:00:26;7.9;48.3
78696;SHT31;68030;51.980;5.646;2023-04-03T08:02:55;8.0;47.0
78696;SHT31;68030;51.980;5.646;2023-04-03T08:05:27;8.1;45.6
78696;SHT31;68030;51.980;5.646;2023-04-03T08:07:57;8.2;43.9
78696;SHT31;68030;51.980;5.646;2023-04-03T08:10:26;8.2;44.2
78696;SHT31;68030;51.980;5.646;2023-04-03T08:12:56;8.3;44.4
78696;SHT31;68030;51.980;5.646;2023-04-03T08:15:26;8.4;45.2
78696;SHT31;68030;51.980;5.646;2023-04-03T08:17:56;8.4;42.8
78696;SHT31;68030;51.980;5.646;2023-04-03T08:20:27;8.5;42.9
78696;SHT31;68030;51.980;5.646;2023-04-03T08:22:57;8.6;43.7
78696;SHT31;68030;51.980;5.646;2023-04-03T08:25:27;8.8;41.9
78696;SHT31;68030;51.980;5.646;2023-04-03T08:27:57;8.9;39.5
78696;SHT31;68030;51.980;5.646;2023-04-03T08:30:26;9.0;38.1
78696;SHT31;68030;51.980;5.646;2023-04-03T08:32:56;9.1;37.3
78696;SHT31;68030;51.980;5.646;2023-04-03T08:35:26;9.1;38.0
78696;SHT31;68030;51.980;5.646;2023-04-03T08:37:55;9.2;36.3
78696;SHT31;68030;51.980;5.646;2023-04-03T08:40:25;9.2;36.2
78696;SHT31;68030;51.980;5.646;2023-04-03T08:43:09;9.2;35.1
78696;SHT31;68030;51.980;5.646;2023-04-03T08:45:46;9.3;34.9
78696;SHT31;68030;51.980;5.646;2023-04-03T08:48:21;9.3;33.5
78696;SHT31;68030;51.980;5.646;2023-04-03T08:50:57;9.4;32.8
78696;SHT31;68030;51.980;5.646;2023-04-03T08:53:32;9.4;31.4
78696;SHT31;68030;51.980;5.646;2023-04-03T08:56:08;9.5;32.2
78696;SHT31;68030;51.980;5.646;2023-04-03T08:58:42;9.5;31.6
78696;SHT31;68030;51.980;5.646;2023-04-03T09:01:20;9.6;31.5
78696;SHT31;68030;51.980;5.646;2023-04-03T09:03:51;9.6;29.6
78696;SHT31;68030;51.980;5.646;2023-04-03T09:06:23;9.7;29.8
78696;SHT31;68030;51.980;5.646;2023-04-03T09:09:05;9.8;31.1
78696;SHT31;68030;51.980;5.646;2023-04-03T09:11:47;9.9;29.1
78696;SHT31;68030;51.980;5.646;2023-04-03T09:14:28;10.0;27.3
78696;SHT31;68030;51.980;5.646;2023-04-03T09:17:04;10.0;26.3
78696;SHT31;68030;51.980;5.646;2023-04-03T09:19:45;10.1;26.6
78696;SHT31;68030;51.980;5.646;2023-04-03T09:22:22;10.1;26.4
78696;SHT31;68030;51.980;5.646;2023-04-03T09:24:58;10.1;23.8
78696;SHT31;68030;51.980;5.646;2023-04-03T09:27:29;10.1;24.1
78696;SHT31;68030;51.980;5.646;2023-04-03T09:29:59;10.1;24.3
78696;SHT31;68030;51.980;5.646;2023-04-03T09:32:31;10.1;22.4
78696;SHT31;68030;51.980;5.646;2023-04-03T09:35:04;10.1;22.6
78696;SHT31;68030;51.980;5.646;2023-04-03T09:37:42;10.1;23.4
78696;SHT31;68030;51.980;5.646;2023-04-03T09:40:31;10.1;23.7
78696;SHT31;68030;51.980;5.646;2023-04-03T09:43:25;10.1;23.5
78696;SHT31;68030;51.980;5.646;2023-04-03T09:46:20;10.1;23.7
78696;SHT31;68030;51.980;5.646;2023-04-03T09:48:57;10.1;24.1
78696;SHT31;68030;51.980;5.646;2023-04-03T09:51:29;10.2;23.7
78696;SHT31;68030;51.980;5.646;2023-04-03T09:53:59;10.2;25.4
78696;SHT31;68030;51.980;5.646;2023-04-03T09:56:30;10.3;24.1
78696;SHT31;68030;51.980;5.646;2023-04-03T09:59:16;10.3;24.6
78696;SHT31;68030;51.980;5.646;2023-04-03T10:02:00;10.4;23.5
78696;SHT31;68030;51.980;5.646;2023-04-03T10:04:40;10.4;24.0
78696;SHT31;68030;51.980;5.646;2023-04-03T10:07:30;10.5;24.6
78696;SHT31;68030;51.980;5.646;2023-04-03T10:10:21;10.5;25.3
78696;SHT31;68030;51.980;5.646;2023-04-03T10:12:37;10.5;25.5
78696;SHT31;68030;51.980;5.646;2023-04-03T10:15:15;10.6;25.4
78696;SHT31;68030;51.980;5.646;2023-04-03T10:17:53;10.7;25.5
78696;SHT31;68030;51.980;5.646;2023-04-03T10:20:35;10.7;24.8
78696;SHT31;68030;51.980;5.646;2023-04-03T10:23:15;10.8;24.1
78696;SHT31;68030;51.980;5.646;2023-04-03T10:25:59;10.9;25.2
78696;SHT31;68030;51.980;5.646;2023-04-03T10:28:40;10.9;24.3
78696;SHT31;68030;51.980;5.646;2023-04-03T10:31:20;10.9;23.4
78696;SHT31;68030;51.980;5.646;2023-04-03T10:34:03;10.9;24.0
78696;SHT31;68030;51.980;5.646;2023-04-03T10:36:40;10.9;24.7
78696;SHT31;68030;51.980;5.646;2023-04-03T10:39:23;11.0;25.6
78696;SHT31;68030;51.980;5.646;2023-04-03T10:42:03;11.0;25.3
78696;SHT31;68030;51.980;5.646;2023-04-03T10:44:50;11.0;24.9
78696;SHT31;68030;51.980;5.646;2023-04-03T10:47:27;11.0;25.8
78696;SHT31;68030;51.980;5.646;2023-04-03T10:50:12;11.0;26.3
78696;SHT31;68030;51.980;5.646;2023-04-03T10:52:52;11.0;26.9
78696;SHT31;68030;51.980;5.646;2023-04-03T10:55:35;11.1;27.3
78696;SHT31;68030;51.980;5.646;2023-04-03T10:58:16;11.1;26.8
78696;SHT31;68030;51.980;5.646;2023-04-03T11:00:50;11.2;27.1
78696;SHT31;68030;51.980;5.646;2023-04-03T11:03:30;11.2;26.7
78696;SHT31;68030;51.980;5.646;2023-04-03T11:06:05;11.3;27.4
78696;SHT31;68030;51.980;5.646;2023-04-03T11:08:42;11.3;26.4
78696;SHT31;68030;51.980;5.646;2023-04-03T11:11:19;11.4;26.5
78696;SHT31;68030;51.980;5.646;2023-04-03T11:13:56;11.4;27.0
78696;SHT31;68030;51.980;5.646;2023-04-03T11:16:31;11.4;27.8
78696;SHT31;68030;51.980;5.646;2023-04-03T11:19:11;11.4;27.0
78696;SHT31;68030;51.980;5.646;2023-04-03T11:21:54;11.5;26.8
78696;SHT31;68030;51.980;5.646;2023-04-03T11:24:29;11.5;27.0
78696;SHT31;68030;51.980;5.646;2023-04-03T11:27:03;11.5;27.4
78696;SHT31;68030;51.980;5.646;2023-04-03T11:29:37;11.6;26.9
78696;SHT31;68030;51.980;5.646;2023-04-03T11:32:26;11.6;27.4
78696;SHT31;68030;51.980;5.646;2023-04-03T11:35:01;11.6;26.9
78696;SHT31;68030;51.980;5.646;2023-04-03T11:37:35;11.7;26.6
78696;SHT31;68030;51.980;5.646;2023-04-03T11:40:16;11.7;26.6
78696;SHT31;68030;51.980;5.646;2023-04-03T11:42:47;11.7;27.2
78696;SHT31;68030;51.980;5.646;2023-04-03T11:45:37;11.8;27.0
78696;SHT31;68030;51.980;5.646;2023-04-03T11:48:43;11.8;27.7
78696;SHT31;68030;51.980;5.646;2023-04-03T11:51:42;11.9;27.3
78696;SHT31;68030;51.980;5.646;2023-04-03T11:55:35;11.9;26.2
78696;SHT31;68030;51.980;5.646;2023-04-03T11:57:46;12.0;26.3
78696;SHT31;68030;51.980;5.646;2023-04-03T12:00:54;12.0;25.9
78696;SHT31;68030;51.980;5.646;2023-04-03T12:05:26;12.1;25.5
78696;SHT31;68030;51.980;5.646;2023-04-03T12:08:21;12.1;26.1
78696;SHT31;68030;51.980;5.646;2023-04-03T12:11:19;12.1;26.1
78696;SHT31;68030;51.980;5.646;2023-04-03T12:14:16;12.1;26.2
78696;SHT31;68030;51.980;5.646;2023-04-03T12:16:47;12.2;32.3
78696;SHT31;68030;51.980;5.646;2023-04-03T12:19:35;12.2;27.8
78696;SHT31;68030;51.980;5.646;2023-04-03T12:22:10;12.2;28.4
78696;SHT31;68030;51.980;5.646;2023-04-03T12:24:42;12.2;27.9
78696;SHT31;68030;51.980;5.646;2023-04-03T12:27:22;12.3;27.2
78696;SHT31;68030;51.980;5.646;2023-04-03T12:29:59;12.3;27.5
78696;SHT31;68030;51.980;5.646;2023-04-03T12:32:51;12.4;27.3
78696;SHT31;68030;51.980;5.646;2023-04-03T12:35:29;12.4;26.5
78696;SHT31;68030;51.980;5.646;2023-04-03T12:42:42;12.5;26.4
78696;SHT31;68030;51.980;5.646;2023-04-03T12:45:20;12.5;29.5
78696;SHT31;68030;51.980;5.646;2023-04-03T12:47:53;12.5;26.4
78696;SHT31;68030;51.980;5.646;2023-04-03T12:50:28;12.6;27.0
78696;SHT31;68030;51.980;5.646;2023-04-03T12:53:05;12.6;27.9
78696;SHT31;68030;51.980;5.646;2023-04-03T12:55:35;12.7;29.2
78696;SHT31;68030;51.980;5.646;2023-04-03T12:58:16;12.8;29.3
78696;SHT31;68030;51.980;5.646;2023-04-03T13:01:04;12.9;27.3
78696;SHT31;68030;51.980;5.646;2023-04-03T13:03:38;13.0;25.9
78696;SHT31;68030;51.980;5.646;2023-04-03T13:06:19;13.1;26.1
78696;SHT31;68030;51.980;5.646;2023-04-03T13:08:52;13.1;25.5
78696;SHT31;68030;51.980;5.646;2023-04-03T13:11:26;13.1;26.7
78696;SHT31;68030;51.980;5.646;2023-04-03T13:14:00;13.1;25.6
78696;SHT31;68030;51.980;5.646;2023-04-03T13:16:33;13.0;25.9
78696;SHT31;68030;51.980;5.646;2023-04-03T13:19:02;13.0;26.2
78696;SHT31;68030;51.980;5.646;2023-04-03T13:21:34;13.0;25.6
78696;SHT31;68030;51.980;5.646;2023-04-03T13:24:05;12.9;25.7
78696;SHT31;68030;51.980;5.646;2023-04-03T13:26:35;12.9;25.4
78696;SHT31;68030;51.980;5.646;2023-04-03T13:29:15;12.8;26.5
78696;SHT31;68030;51.980;5.646;2023-04-03T13:31:42;12.8;26.1
78696;SHT31;68030;51.980;5.646;2023-04-03T13:34:16;12.8;26.3
78696;SHT31;68030;51.980;5.646;2023-04-03T13:36:58;12.7;26.8
78696;SHT31;68030;51.980;5.646;2023-04-03T13:39:30;12.7;27.2
78696;SHT31;68030;51.980;5.646;2023-04-03T13:42:02;12.7;27.1
78696;SHT31;68030;51.980;5.646;2023-04-03T13:44:37;12.7;27.1
78696;SHT31;68030;51.980;5.646;2023-04-03T13:47:19;12.8;27.9
78696;SHT31;68030;51.980;5.646;2023-04-03T13:50:03;12.8;27.6
78696;SHT31;68030;51.980;5.646;2023-04-03T13:52:41;12.8;27.8
78696;SHT31;68030;51.980;5.646;2023-04-03T13:55:23;12.9;26.4
78696;SHT31;68030;51.980;5.646;2023-04-03T13:57:56;12.9;26.6
78696;SHT31;68030;51.980;5.646;2023-04-03T14:00:34;12.9;26.8
78696;SHT31;68030;51.980;5.646;2023-04-03T14:03:16;12.9;27.7
78696;SHT31;68030;51.980;5.646;2023-04-03T14:05:49;13.0;26.4
78696;SHT31;68030;51.980;5.646;2023-04-03T14:08:20;13.0;26.2
78696;SHT31;68030;51.980;5.646;2023-04-03T14:10:50;13.0;26.6
78696;SHT31;68030;51.980;5.646;2023-04-03T14:13:21;13.0;27.1
78696;SHT31;68030;51.980;5.646;2023-04-03T14:15:50;13.0;26.9
78696;SHT31;68030;51.980;5.646;2023-04-03T14:18:20;13.0;26.8
78696;SHT31;68030;51.980;5.646;2023-04-03T14:20:50;13.0;26.9
78696;SHT31;68030;51.980;5.646;2023-04-03T14:23:21;13.0;26.6
78696;SHT31;68030;51.980;5.646;2023-04-03T14:25:51;13.0;28.0
78696;SHT31;68030;51.980;5.646;2023-04-03T14:28:23;13.1;27.7
78696;SHT31;68030;51.980;5.646;2023-04-03T14:30:53;13.1;27.6
78696;SHT31;68030;51.980;5.646;2023-04-03T14:33:23;13.1;27.5
78696;SHT31;68030;51.980;5.646;2023-04-03T14:35:54;13.1;28.4
78696;SHT31;68030;51.980;5.646;2023-04-03T14:38:29;13.1;27.9
78696;SHT31;68030;51.980;5.646;2023-04-03T14:41:00;13.1;27.3
78696;SHT31;68030;51.980;5.646;2023-04-03T14:43:30;13.1;27.5
78696;SHT31;68030;51.980;5.646;2023-04-03T14:46:00;13.2;27.8
78696;SHT31;68030;51.980;5.646;2023-04-03T14:48:30;13.2;27.7
78696;SHT31;68030;51.980;5.646;2023-04-03T14:51:00;13.2;28.1
78696;SHT31;68030;51.980;5.646;2023-04-03T14:53:29;13.2;28.8
78696;SHT31;68030;51.980;5.646;2023-04-03T14:56:01;13.2;28.5
78696;SHT31;68030;51.980;5.646;2023-04-03T14:58:31;13.2;28.5
78696;SHT31;68030;51.980;5.646;2023-04-03T15:01:03;13.3;29.2
78696;SHT31;68030;51.980;5.646;2023-04-03T15:03:33;13.3;27.5
78696;SHT31;68030;51.980;5.646;2023-04-03T15:06:04;13.3;28.1
78696;SHT31;68030;51.980;5.646;2023-04-03T15:08:33;13.3;28.0
78696;SHT31;68030;51.980;5.646;2023-04-03T15:11:03;13.3;28.4
78696;SHT31;68030;51.980;5.646;2023-04-03T15:13:34;13.4;28.6
78696;SHT31;68030;51.980;5.646;2023-04-03T15:16:08;13.4;28.6
78696;SHT31;68030;51.980;5.646;2023-04-03T15:18:41;13.4;28.9
78696;SHT31;68030;51.980;5.646;2023-04-03T15:21:12;13.4;28.7
78696;SHT31;68030;51.980;5.646;2023-04-03T15:23:42;13.5;28.9
78696;SHT31;68030;51.980;5.646;2023-04-03T15:26:12;13.5;29.3
78696;SHT31;68030;51.980;5.646;2023-04-03T15:28:43;13.5;28.7
78696;SHT31;68030;51.980;5.646;2023-04-03T15:31:14;13.5;29.1
78696;SHT31;68030;51.980;5.646;2023-04-03T15:33:43;13.5;29.2
78696;SHT31;68030;51.980;5.646;2023-04-03T15:36:13;13.5;29.0
78696;SHT31;68030;51.980;5.646;2023-04-03T15:38:43;13.5;29.8
78696;SHT31;68030;51.980;5.646;2023-04-03T15:41:13;13.5;29.4
78696;SHT31;68030;51.980;5.646;2023-04-03T15:43:43;13.4;28.8
78696;SHT31;68030;51.980;5.646;2023-04-03T15:46:14;13.4;29.6
78696;SHT31;68030;51.980;5.646;2023-04-03T15:48:44;13.4;28.9
78696;SHT31;68030;51.980;5.646;2023-04-03T15:51:14;13.4;29.0
78696;SHT31;68030;51.980;5.646;2023-04-03T15:53:44;13.3;27.9
78696;SHT31;68030;51.980;5.646;2023-04-03T15:56:14;13.3;28.5
78696;SHT31;68030;51.980;5.646;2023-04-03T15:58:43;13.2;29.1
78696;SHT31;68030;51.980;5.646;2023-04-03T16:01:13;13.2;28.8
78696;SHT31;68030;51.980;5.646;2023-04-03T16:03:46;13.2;29.7
78696;SHT31;68030;51.980;5.646;2023-04-03T16:06:16;13.2;30.1
78696;SHT31;68030;51.980;5.646;2023-04-03T16:08:48;13.1;29.9
78696;SHT31;68030;51.980;5.646;2023-04-03T16:11:18;13.1;29.8
78696;SHT31;68030;51.980;5.646;2023-04-03T16:13:48;13.1;29.8
78696;SHT31;68030;51.980;5.646;2023-04-03T16:16:18;13.1;29.5
78696;SHT31;68030;51.980;5.646;2023-04-03T16:18:48;13.1;30.2
78696;SHT31;68030;51.980;5.646;2023-04-03T16:21:18;13.1;29.8
78696;SHT31;68030;51.980;5.646;2023-04-03T16:23:48;13.1;29.8
78696;SHT31;68030;51.980;5.646;2023-04-03T16:26:20;13.2;29.6
78696;SHT31;68030;51.980;5.646;2023-04-03T16:28:50;13.3;29.8
78696;SHT31;68030;51.980;5.646;2023-04-03T16:31:20;13.4;29.1
78696;SHT31;68030;51.980;5.646;2023-04-03T16:33:50;13.4;29.1
78696;SHT31;68030;51.980;5.646;2023-04-03T16:36:20;13.5;29.1
78696;SHT31;68030;51.980;5.646;2023-04-03T16:38:50;13.6;29.1
78696;SHT31;68030;51.980;5.646;2023-04-03T16:41:20;13.6;29.2
78696;SHT31;68030;51.980;5.646;2023-04-03T16:43:49;13.7;29.3
78696;SHT31;68030;51.980;5.646;2023-04-03T16:46:19;13.8;29.1
78696;SHT31;68030;51.980;5.646;2023-04-03T16:48:49;13.8;28.7
78696;SHT31;68030;51.980;5.646;2023-04-03T16:51:18;13.8;29.6
78696;SHT31;68030;51.980;5.646;2023-04-03T16:53:50;13.8;29.5
78696;SHT31;68030;51.980;5.646;2023-04-03T16:56:20;13.8;29.6
78696;SHT31;68030;51.980;5.646;2023-04-03T16:58:49;13.8;29.3
78696;SHT31;68030;51.980;5.646;2023-04-03T17:01:20;13.8;29.7